Time;durP1;ratioP1;P1;durP2;ratioP2;P2;SDS_P1;SDS_P2;PMS_P1;PMS_P2;Temp;Humidity;BMP_temperature;BMP_pressure;BME280_temperature;BME280_humidity;BME280_pressure;Samples;Min_cycle;Max_cycle;Signal;HPM_P1;HPM_P2
2022/02/19 00:00:58;;;;;;;24.15;3.95;;;;;;;;;;4809930;29;20049;-79
2022/02/19 00:03:24;;;;;;;30.20;5.13;;;;;;;;;;4793866;29;20046;-79
2022/02/19 00:05:50;;;;;;;28.50;4.68;;;;;;;;;;4810763;29;20054;-80
2022/02/19 00:08:16;;;;;;;32.00;4.55;;;;;;;;;;4805635;29;20471;-80
2022/02/19 00:10:43;;;;;;;25.20;5.40;;;;;;;;;;4815632;29;20046;-80
2022/02/19 00:13:09;;;;;;;38.15;4.50;;;;;;;;;;4820252;29;20467;-78
2022/02/19 00:15:35;;;;;;;25.67;4.28;;;;;;;;;;4815056;29;20521;-80
2022/02/19 00:18:01;;;;;;;36.40;5.72;;;;;;;;;;4853526;29;20090;-79
2022/02/19 00:20:30;;;;;;;45.70;5.68;;;;;;;;;;4845113;29;20053;-80
2022/02/19 00:22:57;;;;;;;36.35;5.65;;;;;;;;;;4811563;29;20190;-81
2022/02/19 00:25:23;;;;;;;38.78;5.80;;;;;;;;;;4821667;29;20046;-80
2022/02/19 00:27:49;;;;;;;34.42;5.75;;;;;;;;;;4827310;29;20061;-79
2022/02/19 00:30:15;;;;;;;35.90;5.22;;;;;;;;;;4807614;29;20112;-80
2022/02/19 00:32:41;;;;;;;32.28;6.90;;;;;;;;;;4795552;29;20050;-79
2022/02/19 00:35:08;;;;;;;47.05;6.90;;;;;;;;;;4824772;29;20054;-81
2022/02/19 00:37:34;;;;;;;41.90;6.18;;;;;;;;;;4811549;29;20468;-81
2022/02/19 00:40:00;;;;;;;32.78;5.95;;;;;;;;;;4824961;29;20085;-81
2022/02/19 00:42:26;;;;;;;36.13;5.53;;;;;;;;;;4810120;29;20052;-80
2022/02/19 00:44:52;;;;;;;29.33;5.57;;;;;;;;;;4809597;29;20054;-81
2022/02/19 00:47:18;;;;;;;45.00;6.47;;;;;;;;;;4811901;29;20054;-80
2022/02/19 00:49:45;;;;;;;36.47;6.05;;;;;;;;;;4825532;29;20057;-80
2022/02/19 00:52:11;;;;;;;23.48;4.38;;;;;;;;;;4793709;29;20407;-81
2022/02/19 00:54:37;;;;;;;21.60;4.57;;;;;;;;;;4824315;29;20049;-80
2022/02/19 00:57:03;;;;;;;21.63;3.28;;;;;;;;;;4809738;29;20454;-82
2022/02/19 00:59:29;;;;;;;26.60;5.28;;;;;;;;;;4837013;29;20045;-80
2022/02/19 01:01:55;;;;;;;22.65;4.32;;;;;;;;;;4824027;29;20053;-81
2022/02/19 01:04:21;;;;;;;19.85;3.92;;;;;;;;;;4808533;29;20132;-81
2022/02/19 01:06:47;;;;;;;25.77;4.15;;;;;;;;;;4823315;29;20442;-80
2022/02/19 01:09:13;;;;;;;26.50;4.28;;;;;;;;;;4823009;29;20335;-80
2022/02/19 01:11:39;;;;;;;21.65;3.13;;;;;;;;;;4794095;29;20050;-80
2022/02/19 01:14:07;;;;;;;17.35;2.53;;;;;;;;;;4809678;29;20084;-80
2022/02/19 01:16:33;;;;;;;30.13;3.60;;;;;;;;;;4821887;29;20046;-82
2022/02/19 01:18:59;;;;;;;17.73;3.95;;;;;;;;;;4809018;29;20049;-81
2022/02/19 01:21:26;;;;;;;34.53;4.00;;;;;;;;;;4822439;29;20490;-80
2022/02/19 01:23:52;;;;;;;31.75;4.60;;;;;;;;;;4809269;29;20542;-80
2022/02/19 01:26:18;;;;;;;24.35;3.17;;;;;;;;;;4823695;29;20343;-80
2022/02/19 01:28:44;;;;;;;11.15;2.05;;;;;;;;;;4823102;29;20068;-81
2022/02/19 01:31:10;;;;;;;18.50;2.05;;;;;;;;;;4837668;29;20049;-82
2022/02/19 01:33:36;;;;;;;18.50;2.80;;;;;;;;;;4823824;29;20053;-81
2022/02/19 01:36:03;;;;;;;12.80;1.80;;;;;;;;;;4825289;29;20097;-79
2022/02/19 01:38:30;;;;;;;17.80;2.88;;;;;;;;;;4823002;29;20057;-80
2022/02/19 01:40:56;;;;;;;16.92;2.50;;;;;;;;;;4826548;29;20083;-80
2022/02/19 01:43:22;;;;;;;15.57;1.80;;;;;;;;;;4824147;29;20088;-80
2022/02/19 01:45:48;;;;;;;22.35;3.45;;;;;;;;;;4823830;29;20049;-80
2022/02/19 01:48:15;;;;;;;14.68;2.88;;;;;;;;;;4827512;29;20069;-79
2022/02/19 01:50:41;;;;;;;17.63;2.28;;;;;;;;;;4794609;29;20038;-80
2022/02/19 01:53:08;;;;;;;24.73;3.00;;;;;;;;;;4808313;29;20053;-79
2022/02/19 01:55:34;;;;;;;23.60;2.85;;;;;;;;;;4809339;29;20494;-79
2022/02/19 01:58:02;;;;;;;23.42;2.97;;;;;;;;;;4809008;29;20132;-78
2022/02/19 02:00:28;;;;;;;19.50;2.30;;;;;;;;;;4812823;29;20092;-79
2022/02/19 02:02:56;;;;;;;17.15;2.28;;;;;;;;;;4825600;29;20046;-80
2022/02/19 02:05:22;;;;;;;16.85;2.40;;;;;;;;;;4809477;29;20394;-80
2022/02/19 02:07:49;;;;;;;20.73;2.35;;;;;;;;;;4823332;29;20398;-79
2022/02/19 02:10:15;;;;;;;16.17;2.95;;;;;;;;;;4822296;29;20057;-78
2022/02/19 02:12:41;;;;;;;13.38;1.65;;;;;;;;;;4811203;29;20409;-80
2022/02/19 02:15:27;;;;;;;16.67;2.40;;;;;;;;;;4822142;29;20057;-80
2022/02/19 02:17:54;;;;;;;25.42;2.80;;;;;;;;;;4823184;29;20052;-80
2022/02/19 02:20:20;;;;;;;16.00;2.00;;;;;;;;;;4808885;29;20038;-81
2022/02/19 02:22:46;;;;;;;14.02;2.30;;;;;;;;;;4808635;29;20570;-80
2022/02/19 02:25:13;;;;;;;10.73;1.73;;;;;;;;;;4807963;29;20056;-80
2022/02/19 02:27:39;;;;;;;8.18;1.20;;;;;;;;;;4808119;29;20069;-80
2022/02/19 02:30:06;;;;;;;8.88;0.90;;;;;;;;;;4825356;29;20141;-82
2022/02/19 02:32:32;;;;;;;4.22;0.90;;;;;;;;;;4813492;29;20069;-79
2022/02/19 02:34:58;;;;;;;7.85;1.25;;;;;;;;;;4808904;29;20471;-80
2022/02/19 02:37:25;;;;;;;7.80;0.98;;;;;;;;;;4808631;29;20144;-80
2022/02/19 02:39:52;;;;;;;9.07;1.40;;;;;;;;;;4808194;29;20065;-82
2022/02/19 02:42:18;;;;;;;7.88;0.90;;;;;;;;;;4825764;29;20493;-80
2022/02/19 02:44:45;;;;;;;9.75;1.70;;;;;;;;;;4822707;29;20042;-80
2022/02/19 02:47:11;;;;;;;8.50;1.00;;;;;;;;;;4820880;29;20565;-80
2022/02/19 02:49:38;;;;;;;7.65;0.80;;;;;;;;;;4822499;29;20050;-80
2022/02/19 02:52:05;;;;;;;5.03;0.73;;;;;;;;;;4803224;29;20105;-82
2022/02/19 02:54:31;;;;;;;3.13;0.45;;;;;;;;;;4822218;29;20547;-81
2022/02/19 02:56:57;;;;;;;2.13;0.40;;;;;;;;;;4821569;29;20164;-80
2022/02/19 02:59:23;;;;;;;5.47;0.65;;;;;;;;;;4822561;29;20124;-80
2022/02/19 03:01:49;;;;;;;6.65;1.05;;;;;;;;;;4817994;29;20046;-80
2022/02/19 03:04:15;;;;;;;6.65;0.82;;;;;;;;;;4819930;29;20123;-80
2022/02/19 03:06:41;;;;;;;8.43;1.00;;;;;;;;;;4821589;29;20092;-80
2022/02/19 03:09:07;;;;;;;10.18;1.27;;;;;;;;;;4791056;29;20123;-80
2022/02/19 03:11:35;;;;;;;7.72;1.13;;;;;;;;;;4806000;29;20045;-80
2022/02/19 03:14:02;;;;;;;8.70;1.40;;;;;;;;;;4822780;29;20065;-80
2022/02/19 03:16:28;;;;;;;10.30;1.55;;;;;;;;;;4835975;29;20050;-80
2022/02/19 03:18:54;;;;;;;6.03;1.13;;;;;;;;;;4808950;29;20532;-80
2022/02/19 03:21:20;;;;;;;9.30;1.65;;;;;;;;;;4826015;29;20482;-79
2022/02/19 03:23:46;;;;;;;5.63;1.10;;;;;;;;;;4821834;29;20050;-79
2022/02/19 03:26:12;;;;;;;8.50;1.05;;;;;;;;;;4825315;29;20042;-79
2022/02/19 03:28:39;;;;;;;5.03;0.68;;;;;;;;;;4809102;29;20052;-80
2022/02/19 03:31:05;;;;;;;7.35;1.35;;;;;;;;;;4824569;29;20312;-80
2022/02/19 03:33:31;;;;;;;14.35;1.98;;;;;;;;;;4811488;29;20129;-81
2022/02/19 03:35:57;;;;;;;12.45;1.63;;;;;;;;;;4806199;29;20049;-82
2022/02/19 03:38:23;;;;;;;9.65;1.10;;;;;;;;;;4821227;29;20058;-80
2022/02/19 03:40:49;;;;;;;15.23;2.15;;;;;;;;;;4822001;29;20114;-79
2022/02/19 03:43:15;;;;;;;8.88;2.00;;;;;;;;;;4821684;29;20042;-80
2022/02/19 03:45:43;;;;;;;10.00;1.40;;;;;;;;;;4821782;29;20049;-80
2022/02/19 03:48:10;;;;;;;17.88;2.38;;;;;;;;;;4807354;29;20081;-81
2022/02/19 03:50:36;;;;;;;20.05;2.58;;;;;;;;;;4849893;29;20050;-81
2022/02/19 03:53:03;;;;;;;24.77;2.10;;;;;;;;;;4836985;29;20045;-79
2022/02/19 03:55:29;;;;;;;17.70;2.33;;;;;;;;;;4805478;29;20050;-80
2022/02/19 03:57:55;;;;;;;28.35;3.20;;;;;;;;;;4807301;29;20088;-79
2022/02/19 04:00:21;;;;;;;17.85;2.08;;;;;;;;;;4820341;29;20065;-81
2022/02/19 04:02:47;;;;;;;14.73;2.03;;;;;;;;;;4836190;29;20140;-80
2022/02/19 04:05:14;;;;;;;20.73;2.70;;;;;;;;;;4835941;29;20536;-80
2022/02/19 04:07:41;;;;;;;21.52;2.85;;;;;;;;;;4820652;29;20166;-80
2022/02/19 04:10:07;;;;;;;16.85;3.28;;;;;;;;;;4821209;29;20506;-81
2022/02/19 04:12:34;;;;;;;19.38;2.53;;;;;;;;;;4805416;29;20062;-80
2022/02/19 04:15:00;;;;;;;21.48;2.85;;;;;;;;;;4821324;29;20433;-80
2022/02/19 04:17:26;;;;;;;19.38;2.83;;;;;;;;;;4806271;29;20053;-79
2022/02/19 04:19:53;;;;;;;20.85;2.75;;;;;;;;;;4820647;29;20382;-79
2022/02/19 04:22:25;;;;;;;14.20;2.30;;;;;;;;;;4804761;29;20385;-80
2022/02/19 04:24:52;;;;;;;21.60;2.67;;;;;;;;;;4820289;29;20137;-80
2022/02/19 04:27:19;;;;;;;7.70;1.50;;;;;;;;;;4806816;29;20061;-80
2022/02/19 04:29:45;;;;;;;7.40;1.75;;;;;;;;;;4819930;29;20214;-80
2022/02/19 04:32:11;;;;;;;10.77;1.17;;;;;;;;;;4806916;29;20042;-80
2022/02/19 04:34:38;;;;;;;11.20;1.58;;;;;;;;;;4821013;29;20053;-81
2022/02/19 04:37:05;;;;;;;14.15;1.75;;;;;;;;;;4819308;29;20678;-80
2022/02/19 04:39:31;;;;;;;9.25;1.00;;;;;;;;;;4820379;29;20482;-81
2022/02/19 04:41:57;;;;;;;7.18;1.00;;;;;;;;;;4807387;29;20057;-79
2022/02/19 04:44:23;;;;;;;6.13;1.52;;;;;;;;;;4820867;29;20058;-80
2022/02/19 04:46:49;;;;;;;9.45;1.70;;;;;;;;;;4821893;29;20053;-80
2022/02/19 04:49:15;;;;;;;11.23;1.45;;;;;;;;;;4820706;29;20042;-79
2022/02/19 04:51:41;;;;;;;20.13;3.42;;;;;;;;;;4820617;29;20073;-80
2022/02/19 04:54:07;;;;;;;14.57;2.47;;;;;;;;;;4808714;29;20042;-79
2022/02/19 04:56:34;;;;;;;25.45;2.80;;;;;;;;;;4836119;29;20500;-80
2022/02/19 04:59:00;;;;;;;22.30;2.67;;;;;;;;;;4835031;29;20456;-80
2022/02/19 05:01:26;;;;;;;17.15;3.20;;;;;;;;;;4804922;29;20062;-81
2022/02/19 05:03:56;;;;;;;16.98;2.92;;;;;;;;;;4820317;29;20145;-80
2022/02/19 05:06:23;;;;;;;17.48;2.83;;;;;;;;;;4804587;29;20049;-81
2022/02/19 05:08:49;;;;;;;22.58;3.03;;;;;;;;;;4838699;29;20097;-79
2022/02/19 05:11:15;;;;;;;25.20;2.85;;;;;;;;;;4823373;29;20042;-80
2022/02/19 05:13:41;;;;;;;23.00;3.40;;;;;;;;;;4825843;29;20042;-80
2022/02/19 05:16:07;;;;;;;19.17;3.45;;;;;;;;;;4806113;29;20575;-81
2022/02/19 05:18:33;;;;;;;23.20;3.33;;;;;;;;;;4822548;29;20054;-79
2022/02/19 05:20:59;;;;;;;25.98;3.67;;;;;;;;;;4839803;29;20042;-79
2022/02/19 05:23:25;;;;;;;19.98;3.22;;;;;;;;;;4825513;29;20088;-79
2022/02/19 05:25:52;;;;;;;23.42;3.50;;;;;;;;;;4824836;29;20133;-79
2022/02/19 05:28:18;;;;;;;32.58;3.90;;;;;;;;;;4808344;29;20056;-79
2022/02/19 05:30:44;;;;;;;26.35;4.28;;;;;;;;;;4822835;29;20413;-79
2022/02/19 05:33:10;;;;;;;25.40;4.72;;;;;;;;;;4822343;29;20138;-80
2022/02/19 05:35:36;;;;;;;25.23;4.63;;;;;;;;;;4823079;29;20060;-80
2022/02/19 05:38:02;;;;;;;26.17;4.30;;;;;;;;;;4815555;29;20473;-79
2022/02/19 05:40:29;;;;;;;24.88;3.53;;;;;;;;;;4821074;29;20061;-81
2022/02/19 05:42:55;;;;;;;22.88;3.28;;;;;;;;;;4812396;29;20490;-80
2022/02/19 05:45:21;;;;;;;24.05;3.63;;;;;;;;;;4837225;29;20070;-79
2022/02/19 05:47:47;;;;;;;24.73;3.67;;;;;;;;;;4822075;29;20104;-80
2022/02/19 05:50:13;;;;;;;19.67;2.80;;;;;;;;;;4836259;29;20050;-80
2022/02/19 05:52:39;;;;;;;19.42;2.97;;;;;;;;;;4803296;29;20487;-80
2022/02/19 05:55:06;;;;;;;26.33;4.18;;;;;;;;;;4822675;29;20128;-79
2022/02/19 05:57:32;;;;;;;21.00;3.50;;;;;;;;;;4836801;29;20058;-80
2022/02/19 05:59:58;;;;;;;32.47;5.13;;;;;;;;;;4790101;29;20046;-80
2022/02/19 06:02:24;;;;;;;27.88;5.25;;;;;;;;;;4824022;29;20046;-81
2022/02/19 06:04:51;;;;;;;33.67;4.20;;;;;;;;;;4816727;29;20042;-80
2022/02/19 06:07:17;;;;;;;36.97;5.03;;;;;;;;;;4824235;29;20642;-80
2022/02/19 06:09:43;;;;;;;21.80;3.33;;;;;;;;;;4856048;29;20133;-79
2022/02/19 06:12:09;;;;;;;32.20;3.95;;;;;;;;;;4838757;29;20053;-79
2022/02/19 06:14:35;;;;;;;23.50;3.78;;;;;;;;;;4821448;29;20050;-79
2022/02/19 06:17:03;;;;;;;26.90;3.85;;;;;;;;;;4812228;29;20057;-80
2022/02/19 06:19:29;;;;;;;26.77;4.10;;;;;;;;;;4834033;29;20087;-80
2022/02/19 06:21:55;;;;;;;24.67;3.67;;;;;;;;;;4793565;29;20050;-79
2022/02/19 06:24:21;;;;;;;19.35;3.58;;;;;;;;;;4853531;29;20038;-80
2022/02/19 06:26:47;;;;;;;31.88;4.68;;;;;;;;;;4816104;29;20134;-80
2022/02/19 06:29:13;;;;;;;28.23;4.07;;;;;;;;;;4811566;29;20065;-80
2022/02/19 06:31:39;;;;;;;20.38;3.60;;;;;;;;;;4841077;29;20041;-80
2022/02/19 06:34:05;;;;;;;28.40;3.42;;;;;;;;;;4820567;29;20654;-79
2022/02/19 06:36:31;;;;;;;19.58;3.58;;;;;;;;;;4808514;29;20368;-78
2022/02/19 06:38:57;;;;;;;21.15;2.95;;;;;;;;;;4824042;29;20065;-79
2022/02/19 06:41:24;;;;;;;28.83;3.92;;;;;;;;;;4823561;29;20153;-80
2022/02/19 06:43:50;;;;;;;19.98;3.30;;;;;;;;;;4824808;29;20121;-80
2022/02/19 06:46:16;;;;;;;18.52;3.55;;;;;;;;;;4825467;29;20054;-78
2022/02/19 06:48:42;;;;;;;20.25;3.78;;;;;;;;;;4818379;29;20134;-76
2022/02/19 06:51:08;;;;;;;27.20;3.95;;;;;;;;;;4820529;29;20052;-77
2022/02/19 06:53:34;;;;;;;20.20;3.95;;;;;;;;;;4821433;29;20149;-77
2022/02/19 06:56:00;;;;;;;24.13;4.40;;;;;;;;;;4824545;29;20074;-76
2022/02/19 06:58:26;;;;;;;21.88;3.65;;;;;;;;;;4814731;29;20057;-76
2022/02/19 07:00:53;;;;;;;22.20;3.10;;;;;;;;;;4824367;29;20138;-78
2022/02/19 07:03:20;;;;;;;20.85;3.75;;;;;;;;;;4805312;29;21797;-80
2022/02/19 07:05:51;;;;;;;21.55;3.85;;;;;;;;;;4823926;29;20122;-76
2022/02/19 07:08:17;;;;;;;22.35;3.25;;;;;;;;;;4825207;29;20085;-79
2022/02/19 07:10:44;;;;;;;16.90;3.13;;;;;;;;;;4819549;29;20405;-77
2022/02/19 07:13:10;;;;;;;22.63;3.92;;;;;;;;;;4833934;29;20054;-77
2022/02/19 07:15:36;;;;;;;15.10;2.90;;;;;;;;;;4825021;29;20134;-76
2022/02/19 07:18:02;;;;;;;16.30;2.90;;;;;;;;;;4822202;29;20081;-78
2022/02/19 07:20:28;;;;;;;14.93;3.78;;;;;;;;;;4822453;29;20102;-78
2022/02/19 07:22:54;;;;;;;15.20;2.30;;;;;;;;;;4811355;29;20107;-81
2022/02/19 07:25:21;;;;;;;17.08;2.50;;;;;;;;;;4794187;29;20062;-78
2022/02/19 07:27:47;;;;;;;10.88;2.03;;;;;;;;;;4823643;29;20073;-76
2022/02/19 07:30:17;;;;;;;12.98;2.30;;;;;;;;;;4831835;29;20078;-77
2022/02/19 07:32:44;;;;;;;18.63;3.10;;;;;;;;;;4821091;29;20129;-77
2022/02/19 07:35:11;;;;;;;22.25;2.80;;;;;;;;;;4820915;29;20090;-76
2022/02/19 07:37:37;;;;;;;14.85;2.55;;;;;;;;;;4823037;29;20065;-76
2022/02/19 07:40:04;;;;;;;14.85;2.22;;;;;;;;;;4819937;29;20482;-80
2022/02/19 07:42:30;;;;;;;16.48;2.67;;;;;;;;;;4835278;29;20049;-79
2022/02/19 07:44:57;;;;;;;21.55;3.10;;;;;;;;;;4827908;29;20084;-78
2022/02/19 07:47:27;;;;;;;18.63;3.38;;;;;;;;;;4829249;29;20842;-76
2022/02/19 07:58:18;;;;;;;24.08;3.50;;;;;;;;;;4832389;29;20133;-80
2022/02/19 08:00:44;;;;;;;14.13;3.10;;;;;;;;;;4820905;29;20114;-81
2022/02/19 08:03:11;;;;;;;16.80;2.72;;;;;;;;;;4825584;29;20046;-82
2022/02/19 08:05:37;;;;;;;16.13;2.35;;;;;;;;;;4819744;29;20066;-81
2022/02/19 08:08:03;;;;;;;22.83;3.28;;;;;;;;;;4809748;29;20061;-82
2022/02/19 08:10:29;;;;;;;22.10;3.33;;;;;;;;;;4807008;29;20049;-81
2022/02/19 08:12:55;;;;;;;18.05;3.22;;;;;;;;;;4816072;29;20084;-81
2022/02/19 08:15:21;;;;;;;26.15;4.43;;;;;;;;;;4813995;29;20054;-81
2022/02/19 08:17:47;;;;;;;26.08;3.85;;;;;;;;;;4821878;29;20057;-81
2022/02/19 08:20:13;;;;;;;19.92;3.38;;;;;;;;;;4802960;29;20137;-81
2022/02/19 08:22:39;;;;;;;14.93;2.60;;;;;;;;;;4823963;29;20054;-81
2022/02/19 08:25:05;;;;;;;16.95;2.88;;;;;;;;;;4815153;29;20050;-81
2022/02/19 08:27:39;;;;;;;18.58;2.92;;;;;;;;;;4810919;29;20060;-81
2022/02/19 08:30:06;;;;;;;19.35;3.20;;;;;;;;;;4822849;29;20061;-81
2022/02/19 08:32:32;;;;;;;20.45;2.83;;;;;;;;;;4822213;29;20100;-81
2022/02/19 08:34:58;;;;;;;19.48;3.33;;;;;;;;;;4799817;29;20049;-81
2022/02/19 08:37:24;;;;;;;24.73;2.95;;;;;;;;;;4827053;29;20145;-81
2022/02/19 08:39:50;;;;;;;15.23;2.83;;;;;;;;;;4836216;29;20054;-81
2022/02/19 08:42:17;;;;;;;14.48;2.58;;;;;;;;;;4827734;29;20132;-82
2022/02/19 08:44:43;;;;;;;19.67;3.58;;;;;;;;;;4812147;29;20109;-82
2022/02/19 08:47:09;;;;;;;24.20;3.35;;;;;;;;;;4841278;29;20056;-81
2022/02/19 08:49:35;;;;;;;19.88;2.90;;;;;;;;;;4817693;29;20043;-81
2022/02/19 08:52:01;;;;;;;26.67;3.50;;;;;;;;;;4812391;29;20048;-81
2022/02/19 08:54:27;;;;;;;17.75;3.85;;;;;;;;;;4822986;29;20050;-81
2022/02/19 08:56:54;;;;;;;22.27;3.70;;;;;;;;;;4819122;29;20072;-81
2022/02/19 08:59:21;;;;;;;23.65;4.15;;;;;;;;;;4820780;29;20102;-82
2022/02/19 09:01:47;;;;;;;24.52;4.18;;;;;;;;;;4829560;29;20051;-81
2022/02/19 09:04:14;;;;;;;23.17;4.13;;;;;;;;;;4822896;29;20046;-82
2022/02/19 09:06:40;;;;;;;18.85;4.63;;;;;;;;;;4819645;29;20046;-81
2022/02/19 09:09:06;;;;;;;32.00;3.90;;;;;;;;;;4820271;29;20400;-81
2022/02/19 09:11:33;;;;;;;23.88;3.83;;;;;;;;;;4829018;29;20266;-81
2022/02/19 09:13:59;;;;;;;20.50;3.83;;;;;;;;;;4820935;29;20086;-81
2022/02/19 09:16:28;;;;;;;20.85;3.65;;;;;;;;;;4809997;29;20100;-81
2022/02/19 09:18:54;;;;;;;19.45;3.38;;;;;;;;;;4833372;29;20137;-80
2022/02/19 09:21:20;;;;;;;24.20;3.47;;;;;;;;;;4833936;29;20054;-81
2022/02/19 09:23:46;;;;;;;17.38;3.35;;;;;;;;;;4839390;29;20060;-81
2022/02/19 09:26:12;;;;;;;25.67;4.32;;;;;;;;;;4824960;29;20136;-81
2022/02/19 09:28:39;;;;;;;19.52;3.55;;;;;;;;;;4839264;29;20122;-80
2022/02/19 09:31:05;;;;;;;23.33;4.00;;;;;;;;;;4838395;29;20081;-81
2022/02/19 09:33:31;;;;;;;16.30;3.30;;;;;;;;;;4833516;29;20136;-81
2022/02/19 09:35:58;;;;;;;21.48;3.40;;;;;;;;;;4841459;29;20091;-81
2022/02/19 09:38:24;;;;;;;25.52;3.80;;;;;;;;;;4822000;29;20129;-81
2022/02/19 09:40:50;;;;;;;29.73;4.25;;;;;;;;;;4811801;29;20050;-81
2022/02/19 09:43:17;;;;;;;19.40;3.25;;;;;;;;;;4819450;29;20565;-82
2022/02/19 09:45:43;;;;;;;20.50;3.55;;;;;;;;;;4820145;29;20058;-81
2022/02/19 09:48:10;;;;;;;16.70;3.17;;;;;;;;;;4815366;29;20046;-80
2022/02/19 09:50:37;;;;;;;24.85;4.13;;;;;;;;;;4811600;29;20093;-80
2022/02/19 09:53:04;;;;;;;20.90;3.55;;;;;;;;;;4807752;29;20047;-80
2022/02/19 09:55:30;;;;;;;18.88;3.80;;;;;;;;;;4812064;29;20402;-80
2022/02/19 09:57:56;;;;;;;13.43;2.72;;;;;;;;;;4815012;29;20042;-81
2022/02/19 10:00:48;;;;;;;19.77;3.90;;;;;;;;;;4818995;29;20050;-81
2022/02/19 10:03:17;;;;;;;24.70;3.72;;;;;;;;;;4806691;29;20084;-81
2022/02/19 10:05:44;;;;;;;17.58;3.05;;;;;;;;;;4812191;29;20463;-81
2022/02/19 10:08:10;;;;;;;22.63;3.25;;;;;;;;;;4821673;29;20140;-81
2022/02/19 10:10:55;;;;;;;18.33;3.35;;;;;;;;;;4818785;29;20054;-81
2022/02/19 10:13:32;;;;;;;17.83;3.03;;;;;;;;;;4803791;29;20122;-81
2022/02/19 10:15:59;;;;;;;26.95;3.28;;;;;;;;;;4816080;29;20051;-81
2022/02/19 10:18:29;;;;;;;14.73;2.72;;;;;;;;;;4816087;29;20129;-81
2022/02/19 10:21:13;;;;;;;23.30;3.25;;;;;;;;;;4817649;29;20410;-80
2022/02/19 10:23:41;;;;;;;19.85;3.30;;;;;;;;;;4792380;29;20109;-81
2022/02/19 10:26:08;;;;;;;21.05;2.85;;;;;;;;;;4807558;29;20120;-81
2022/02/19 10:28:35;;;;;;;17.60;2.72;;;;;;;;;;4804270;29;20065;-80
2022/02/19 10:31:10;;;;;;;16.48;2.10;;;;;;;;;;4799527;29;20043;-80
2022/02/19 10:33:38;;;;;;;20.95;3.15;;;;;;;;;;4816056;29;20054;-81
2022/02/19 10:36:04;;;;;;;17.10;3.05;;;;;;;;;;4830630;29;20055;-80
2022/02/19 10:38:30;;;;;;;18.65;3.17;;;;;;;;;;4810182;29;20064;-81
2022/02/19 10:40:57;;;;;;;21.90;4.10;;;;;;;;;;4805590;29;20156;-81
2022/02/19 10:43:30;;;;;;;16.00;2.63;;;;;;;;;;4818621;29;20046;-81
2022/02/19 10:45:57;;;;;;;26.30;4.47;;;;;;;;;;4815331;29;20050;-80
2022/02/19 10:48:23;;;;;;;22.70;2.75;;;;;;;;;;4806212;29;20141;-81
2022/02/19 10:50:49;;;;;;;16.85;2.30;;;;;;;;;;4828141;29;20085;-81
2022/02/19 10:53:21;;;;;;;16.88;2.70;;;;;;;;;;4820729;29;20054;-81
2022/02/19 10:55:47;;;;;;;18.75;2.42;;;;;;;;;;4816883;29;20069;-81
2022/02/19 10:58:13;;;;;;;14.02;2.40;;;;;;;;;;4818844;29;20085;-81
2022/02/19 11:00:40;;;;;;;17.67;2.90;;;;;;;;;;4793733;29;20074;-81
2022/02/19 11:03:06;;;;;;;18.83;2.45;;;;;;;;;;4805583;29;20050;-81
2022/02/19 11:05:33;;;;;;;23.50;2.97;;;;;;;;;;4803176;29;20126;-80
2022/02/19 11:08:01;;;;;;;11.23;3.13;;;;;;;;;;4804688;29;20526;-81
2022/02/19 11:10:28;;;;;;;10.98;2.25;;;;;;;;;;4819272;29;20105;-80
2022/02/19 11:12:55;;;;;;;15.52;2.70;;;;;;;;;;4808566;29;20514;-81
2022/02/19 11:15:23;;;;;;;16.88;2.88;;;;;;;;;;4813103;29;20057;-81
2022/02/19 11:17:50;;;;;;;22.15;3.20;;;;;;;;;;4804083;29;20081;-81
2022/02/19 11:20:16;;;;;;;12.00;2.00;;;;;;;;;;4821440;29;20440;-80
2022/02/19 11:22:43;;;;;;;17.42;2.95;;;;;;;;;;4806425;29;20530;-81
2022/02/19 11:25:10;;;;;;;14.88;2.22;;;;;;;;;;4817878;29;20130;-81
2022/02/19 11:27:38;;;;;;;23.15;2.97;;;;;;;;;;4830172;29;20058;-81
2022/02/19 11:30:06;;;;;;;14.95;2.45;;;;;;;;;;4788411;29;20050;-80
2022/02/19 11:32:33;;;;;;;12.90;2.33;;;;;;;;;;4790960;29;20403;-82
2022/02/19 11:34:59;;;;;;;20.77;2.42;;;;;;;;;;4817145;29;20440;-80
2022/02/19 11:37:25;;;;;;;11.40;2.55;;;;;;;;;;4806634;29;20356;-81
2022/02/19 11:40:07;;;;;;;15.75;2.67;;;;;;;;;;4820562;29;20078;-81
2022/02/19 11:42:36;;;;;;;12.73;1.98;;;;;;;;;;4806009;29;20046;-82
2022/02/19 11:45:21;;;;;;;13.07;3.10;;;;;;;;;;4821549;29;20050;-80
2022/02/19 11:47:48;;;;;;;20.73;3.38;;;;;;;;;;4821166;29;20053;-81
2022/02/19 11:50:21;;;;;;;17.40;2.67;;;;;;;;;;4819650;29;20041;-81
2022/02/19 11:53:07;;;;;;;21.15;2.67;;;;;;;;;;4822505;29;20156;-81
2022/02/19 11:55:34;;;;;;;13.77;2.88;;;;;;;;;;4830105;29;20046;-81
2022/02/19 11:58:00;;;;;;;16.45;2.47;;;;;;;;;;4796219;29;20363;-81
2022/02/19 12:00:42;;;;;;;16.25;2.75;;;;;;;;;;4816408;29;20110;-82
2022/02/19 12:03:18;;;;;;;13.43;2.13;;;;;;;;;;4806670;29;20042;-81
2022/02/19 12:06:03;;;;;;;12.68;1.88;;;;;;;;;;4808088;29;20435;-81
2022/02/19 12:08:48;;;;;;;18.10;2.85;;;;;;;;;;4820326;29;20042;-81
2022/02/19 12:11:15;;;;;;;16.13;2.92;;;;;;;;;;4806510;29;20042;-81
2022/02/19 12:13:44;;;;;;;14.73;2.20;;;;;;;;;;4821304;29;20046;-81
2022/02/19 12:16:34;;;;;;;17.00;2.35;;;;;;;;;;4823160;29;20048;-81
2022/02/19 12:19:01;;;;;;;11.45;1.85;;;;;;;;;;4829029;29;20054;-81
2022/02/19 12:21:43;;;;;;;14.60;2.25;;;;;;;;;;4814607;29;20057;-81
2022/02/19 12:24:21;;;;;;;15.73;2.50;;;;;;;;;;4826100;29;20397;-81
2022/02/19 12:29:26;;;;;;;14.88;3.03;;;;;;;;;;4827742;29;20046;-81
2022/02/19 12:32:02;;;;;;;16.40;2.53;;;;;;;;;;4824314;29;20069;-81
2022/02/19 12:34:30;;;;;;;14.25;2.20;;;;;;;;;;4812142;29;20566;-80
2022/02/19 12:36:56;;;;;;;10.50;2.10;;;;;;;;;;4815020;29;20053;-81
2022/02/19 12:39:23;;;;;;;15.18;2.53;;;;;;;;;;4844211;29;20140;-81
2022/02/19 12:41:49;;;;;;;20.67;4.03;;;;;;;;;;4826468;29;20054;-81
2022/02/19 12:44:19;;;;;;;18.63;2.47;;;;;;;;;;4822119;29;20478;-81
2022/02/19 12:46:45;;;;;;;13.63;2.03;;;;;;;;;;4827600;29;20429;-81
2022/02/19 12:49:12;;;;;;;14.13;2.42;;;;;;;;;;4802925;29;20133;-80
2022/02/19 12:51:38;;;;;;;10.80;2.03;;;;;;;;;;4823775;29;20061;-81
2022/02/19 12:54:04;;;;;;;9.98;2.78;;;;;;;;;;4818430;29;20053;-80
2022/02/19 12:56:41;;;;;;;11.48;1.80;;;;;;;;;;4837412;29;20477;-80
2022/02/19 12:59:07;;;;;;;11.52;1.60;;;;;;;;;;4828948;29;20045;-80
2022/02/19 13:01:33;;;;;;;13.13;2.17;;;;;;;;;;4808455;29;20152;-81
2022/02/19 13:03:59;;;;;;;16.67;2.47;;;;;;;;;;4837366;29;20098;-81
2022/02/19 13:06:27;;;;;;;13.02;2.67;;;;;;;;;;4811284;29;20068;-81
2022/02/19 13:09:09;;;;;;;14.30;2.25;;;;;;;;;;4817710;29;20435;-80
2022/02/19 13:11:36;;;;;;;14.88;2.42;;;;;;;;;;4806901;29;20074;-81
2022/02/19 13:14:05;;;;;;;16.08;2.85;;;;;;;;;;4813205;29;20053;-81
2022/02/19 13:16:32;;;;;;;14.55;1.92;;;;;;;;;;4829204;29;20050;-80
2022/02/19 13:18:58;;;;;;;21.75;2.40;;;;;;;;;;4844284;29;20549;-80
2022/02/19 13:21:24;;;;;;;11.27;2.75;;;;;;;;;;4816183;29;20042;-81
2022/02/19 13:23:52;;;;;;;12.43;1.98;;;;;;;;;;4806942;29;20081;-81
2022/02/19 13:26:25;;;;;;;9.32;2.05;;;;;;;;;;4821811;29;20088;-81
2022/02/19 13:28:52;;;;;;;16.25;2.92;;;;;;;;;;4821231;29;20397;-80
2022/02/19 13:31:18;;;;;;;13.80;2.33;;;;;;;;;;4825944;29;20442;-80
2022/02/19 13:33:46;;;;;;;12.50;2.40;;;;;;;;;;4792901;29;20143;-81
2022/02/19 13:36:13;;;;;;;8.70;1.80;;;;;;;;;;4822165;29;20122;-81
2022/02/19 13:38:40;;;;;;;16.80;2.45;;;;;;;;;;4795463;29;20106;-82
2022/02/19 13:41:06;;;;;;;8.98;2.15;;;;;;;;;;4818697;29;20049;-81
2022/02/19 13:43:32;;;;;;;12.05;2.20;;;;;;;;;;4793382;29;20047;-80
2022/02/19 13:46:11;;;;;;;24.52;3.28;;;;;;;;;;4811415;29;20076;-80
2022/02/19 13:48:37;;;;;;;15.68;2.13;;;;;;;;;;4800820;29;20054;-81
2022/02/19 13:51:05;;;;;;;11.05;2.50;;;;;;;;;;4811596;29;20046;-81
2022/02/19 13:53:32;;;;;;;16.63;2.88;;;;;;;;;;4826211;29;20057;-79
2022/02/19 13:56:03;;;;;;;11.23;2.15;;;;;;;;;;4807071;29;20078;-79
2022/02/19 13:58:30;;;;;;;14.45;2.35;;;;;;;;;;4804782;29;20080;-80
2022/02/19 14:01:08;;;;;;;18.88;2.88;;;;;;;;;;4814242;29;20077;-80
2022/02/19 14:03:44;;;;;;;9.18;2.05;;;;;;;;;;4811776;29;20390;-79
2022/02/19 14:06:29;;;;;;;13.13;2.50;;;;;;;;;;4812713;29;20042;-79
2022/02/19 14:09:14;;;;;;;10.60;2.25;;;;;;;;;;4810335;29;20056;-80
2022/02/19 14:11:40;;;;;;;17.13;2.40;;;;;;;;;;4808304;29;20099;-80
2022/02/19 14:14:07;;;;;;;19.80;3.50;;;;;;;;;;4819045;29;20058;-80
2022/02/19 14:16:33;;;;;;;15.77;2.75;;;;;;;;;;4812349;29;20042;-80
2022/02/19 14:19:03;;;;;;;15.30;2.05;;;;;;;;;;4814447;29;20081;-80
2022/02/19 14:21:29;;;;;;;20.85;3.28;;;;;;;;;;4799500;29;20049;-80
2022/02/19 14:24:08;;;;;;;12.68;2.60;;;;;;;;;;4814902;29;20129;-80
2022/02/19 14:26:35;;;;;;;14.85;2.38;;;;;;;;;;4838542;29;20149;-80
2022/02/19 14:29:01;;;;;;;26.73;2.90;;;;;;;;;;4819855;29;20042;-80
2022/02/19 14:31:27;;;;;;;21.10;2.45;;;;;;;;;;4812294;29;20121;-80
2022/02/19 14:33:53;;;;;;;21.38;3.70;;;;;;;;;;4793163;29;20474;-80
2022/02/19 14:36:21;;;;;;;19.95;3.08;;;;;;;;;;4823401;29;20054;-80
2022/02/19 14:38:48;;;;;;;11.77;2.13;;;;;;;;;;4811321;29;20068;-80
2022/02/19 14:41:14;;;;;;;15.50;2.60;;;;;;;;;;4807910;29;20088;-80
2022/02/19 14:43:41;;;;;;;13.13;2.72;;;;;;;;;;4825468;29;20084;-81